Time;durP1;ratioP1;P1;durP2;ratioP2;P2;SDS_P1;SDS_P2;PMS_P1;PMS_P2;Temp;Humidity;BMP_temperature;BMP_pressure;BME280_temperature;BME280_humidity;BME280_pressure;Samples;Min_cycle;Max_cycle;Signal;HPM_P1;HPM_P2
2022/03/02 00:01:33;;;;;;;34.00;17.98;;;2.50;99.90;;;;;;5140922;27;20018;-59
2022/03/02 00:03:59;;;;;;;29.48;16.85;;;2.50;99.90;;;;;;5138116;27;20023;-59
2022/03/02 00:06:25;;;;;;;26.67;15.57;;;2.40;99.90;;;;;;5150797;27;20387;-59
2022/03/02 00:08:50;;;;;;;30.30;17.20;;;2.30;99.90;;;;;;5149144;27;20054;-59
2022/03/02 00:11:16;;;;;;;39.00;18.48;;;2.30;99.90;;;;;;5144506;27;20037;-61
2022/03/02 00:13:42;;;;;;;37.00;19.02;;;2.40;99.90;;;;;;5142121;27;20032;-60
2022/03/02 00:16:08;;;;;;;30.10;17.70;;;2.40;99.90;;;;;;5150434;27;20328;-61
2022/03/02 00:18:34;;;;;;;32.38;18.45;;;2.40;99.90;;;;;;5149660;27;20102;-61
2022/03/02 00:20:59;;;;;;;33.33;17.45;;;2.50;99.90;;;;;;5142121;27;20027;-61
2022/03/02 00:23:25;;;;;;;31.70;17.23;;;2.50;99.90;;;;;;5143673;27;20029;-61
2022/03/02 00:25:50;;;;;;;32.60;17.88;;;2.50;99.90;;;;;;5148248;27;20027;-61
2022/03/02 00:28:16;;;;;;;27.70;16.08;;;2.50;99.90;;;;;;5130709;27;20023;-60
2022/03/02 00:30:41;;;;;;;33.97;18.13;;;2.50;99.90;;;;;;5144264;27;20030;-60
2022/03/02 00:33:07;;;;;;;29.80;16.77;;;2.50;99.90;;;;;;5149800;27;20044;-61
2022/03/02 00:35:34;;;;;;;28.80;17.10;;;2.50;99.90;;;;;;5150254;27;20031;-61
2022/03/02 00:38:02;;;;;;;33.95;17.98;;;2.50;99.90;;;;;;5145217;27;20101;-60
2022/03/02 00:40:28;;;;;;;29.65;17.92;;;2.40;99.90;;;;;;5111707;27;20181;-61
2022/03/02 00:42:53;;;;;;;26.15;16.00;;;2.50;99.90;;;;;;5121472;27;20111;-61
2022/03/02 00:45:19;;;;;;;36.05;18.40;;;2.50;99.90;;;;;;5120262;27;20138;-60
2022/03/02 00:47:45;;;;;;;29.55;17.10;;;2.50;99.90;;;;;;5121202;27;20720;-60
2022/03/02 00:50:11;;;;;;;26.80;15.60;;;2.50;99.90;;;;;;5143856;27;20099;-60
2022/03/02 00:52:37;;;;;;;29.00;16.83;;;2.40;99.90;;;;;;5127583;27;20076;-60
2022/03/02 00:55:03;;;;;;;28.88;16.73;;;2.40;99.90;;;;;;5107112;28;20032;-60
2022/03/02 00:57:29;;;;;;;28.08;16.67;;;2.30;99.90;;;;;;5119345;27;20035;-60
2022/03/02 00:59:54;;;;;;;30.42;17.52;;;2.30;99.90;;;;;;5140964;27;20023;-60
2022/03/02 01:02:20;;;;;;;29.92;17.08;;;2.30;99.90;;;;;;5149488;27;20019;-60
2022/03/02 01:04:45;;;;;;;29.08;16.30;;;2.30;99.90;;;;;;5136972;27;20024;-60
2022/03/02 01:07:11;;;;;;;26.05;14.95;;;2.30;99.90;;;;;;5140490;27;20079;-60
2022/03/02 01:09:37;;;;;;;28.75;17.13;;;2.20;99.90;;;;;;5147278;27;20031;-60
2022/03/02 01:12:02;;;;;;;32.95;16.73;;;2.30;99.90;;;;;;5131093;27;20427;-60
2022/03/02 01:14:28;;;;;;;30.10;16.15;;;2.20;99.90;;;;;;5139253;27;20027;-60
2022/03/02 01:16:53;;;;;;;30.33;16.30;;;2.20;99.90;;;;;;5149688;27;20051;-60
2022/03/02 01:19:19;;;;;;;29.35;16.70;;;2.20;99.90;;;;;;5148451;27;20507;-60
2022/03/02 01:21:45;;;;;;;28.88;15.50;;;2.20;99.90;;;;;;5148539;27;20175;-58
2022/03/02 01:24:11;;;;;;;26.77;15.40;;;2.20;99.90;;;;;;5147503;27;20033;-58
2022/03/02 01:26:36;;;;;;;28.70;16.10;;;2.20;99.90;;;;;;5131808;27;20031;-58
2022/03/02 01:29:04;;;;;;;31.77;18.45;;;2.20;99.90;;;;;;5146989;27;20023;-58
2022/03/02 01:31:29;;;;;;;32.00;16.67;;;2.20;99.90;;;;;;5149199;27;20106;-59
2022/03/02 01:33:55;;;;;;;33.05;17.40;;;2.20;99.90;;;;;;5136426;27;20102;-57
2022/03/02 01:36:22;;;;;;;33.60;16.15;;;2.20;99.90;;;;;;5141884;27;20031;-58
2022/03/02 01:38:48;;;;;;;30.08;16.48;;;2.20;99.90;;;;;;5145010;27;20027;-58
2022/03/02 01:41:16;;;;;;;30.70;17.33;;;2.20;99.90;;;;;;5123547;28;20505;-58
2022/03/02 01:43:42;;;;;;;31.20;16.92;;;2.20;99.90;;;;;;5132861;27;20030;-59
2022/03/02 01:46:07;;;;;;;29.80;16.38;;;2.20;99.90;;;;;;5145216;27;20387;-59
2022/03/02 01:48:33;;;;;;;30.70;16.38;;;2.20;99.90;;;;;;5118188;27;20094;-58
2022/03/02 01:50:58;;;;;;;31.48;16.80;;;2.10;99.90;;;;;;5120098;27;20091;-58
2022/03/02 01:53:25;;;;;;;26.35;14.82;;;2.10;99.90;;;;;;5113087;27;20098;-58
2022/03/02 01:55:50;;;;;;;29.75;17.50;;;2.00;99.90;;;;;;5107674;28;20023;-58
2022/03/02 01:58:16;;;;;;;25.40;14.25;;;1.90;99.90;;;;;;5128491;27;20384;-57
2022/03/02 02:00:42;;;;;;;32.50;16.33;;;1.90;99.90;;;;;;5143178;27;20079;-59
2022/03/02 02:03:08;;;;;;;26.33;15.05;;;1.80;99.90;;;;;;5148768;27;20031;-59
2022/03/02 02:05:34;;;;;;;26.10;14.85;;;1.80;99.90;;;;;;5139226;27;20015;-59
2022/03/02 02:08:00;;;;;;;27.08;16.05;;;1.80;99.90;;;;;;5139211;27;20442;-60
2022/03/02 02:10:25;;;;;;;32.25;17.45;;;1.70;99.90;;;;;;5147191;27;20031;-59
2022/03/02 02:12:51;;;;;;;36.67;18.90;;;1.80;99.90;;;;;;5131894;27;20027;-59
2022/03/02 02:15:16;;;;;;;31.27;16.48;;;1.80;99.90;;;;;;5139985;27;20048;-59
2022/03/02 02:17:42;;;;;;;33.60;16.92;;;1.80;99.90;;;;;;5111230;28;20034;-58
2022/03/02 02:20:09;;;;;;;32.15;16.90;;;1.90;99.90;;;;;;5116868;28;20408;-59
2022/03/02 02:22:43;;;;;;;31.10;15.70;;;1.90;99.90;;;;;;5114683;27;20598;-59
2022/03/02 02:25:10;;;;;;;31.77;17.55;;;1.90;99.90;;;;;;5121632;27;20106;-59
2022/03/02 02:27:36;;;;;;;31.38;16.92;;;1.80;99.90;;;;;;5128622;27;20027;-59
2022/03/02 02:30:03;;;;;;;30.48;17.23;;;1.80;99.90;;;;;;5138955;27;20027;-59
2022/03/02 02:32:29;;;;;;;30.15;16.13;;;1.80;99.90;;;;;;5147890;27;20033;-59
2022/03/02 02:34:57;;;;;;;30.58;16.98;;;1.80;99.90;;;;;;5151645;27;20372;-59
2022/03/02 02:37:25;;;;;;;27.58;15.77;;;1.80;99.90;;;;;;5151726;27;20547;-59
2022/03/02 02:39:55;;;;;;;32.70;18.08;;;1.80;99.90;;;;;;5151277;27;20460;-58
2022/03/02 02:42:20;;;;;;;33.05;19.13;;;1.80;99.90;;;;;;5139568;27;20030;-58
2022/03/02 02:44:46;;;;;;;31.65;17.17;;;1.80;99.90;;;;;;5142364;27;20022;-58
2022/03/02 02:47:12;;;;;;;28.67;16.45;;;1.70;99.90;;;;;;5151426;27;20030;-58
2022/03/02 02:49:37;;;;;;;29.73;16.63;;;1.70;99.90;;;;;;5135258;27;20108;-58
2022/03/02 02:52:03;;;;;;;28.83;16.55;;;1.70;99.90;;;;;;5136677;27;20023;-58
2022/03/02 02:54:29;;;;;;;29.65;16.45;;;1.70;99.90;;;;;;5131448;27;20511;-58
2022/03/02 02:56:54;;;;;;;28.33;16.33;;;1.70;99.90;;;;;;5126309;27;20285;-58
2022/03/02 02:59:20;;;;;;;28.52;16.10;;;1.70;99.90;;;;;;5142561;27;20409;-58
2022/03/02 03:01:46;;;;;;;27.75;15.70;;;1.70;99.90;;;;;;5150592;27;20104;-58
2022/03/02 03:04:12;;;;;;;27.98;15.68;;;1.70;99.90;;;;;;5151822;27;20029;-57
2022/03/02 03:06:38;;;;;;;30.60;15.18;;;1.60;99.90;;;;;;5137218;27;20023;-58
2022/03/02 03:09:03;;;;;;;30.38;16.85;;;1.60;99.90;;;;;;5149966;27;20038;-58
2022/03/02 03:11:29;;;;;;;26.90;16.17;;;1.60;99.90;;;;;;5142813;27;20024;-58
2022/03/02 03:13:54;;;;;;;24.40;15.35;;;1.50;99.90;;;;;;5138275;27;20035;-58
2022/03/02 03:16:20;;;;;;;28.73;15.82;;;1.50;99.90;;;;;;5151722;27;20498;-58
2022/03/02 03:18:46;;;;;;;30.02;17.27;;;1.50;99.90;;;;;;5150292;27;20101;-58
2022/03/02 03:21:12;;;;;;;27.13;15.20;;;1.50;99.90;;;;;;5151679;27;20015;-58
2022/03/02 03:23:38;;;;;;;29.15;16.17;;;1.40;99.90;;;;;;5151721;27;20054;-58
2022/03/02 03:26:03;;;;;;;28.25;15.82;;;1.40;99.90;;;;;;5151627;27;20065;-58
2022/03/02 03:28:29;;;;;;;24.77;16.10;;;1.50;99.90;;;;;;5149173;27;20225;-58
2022/03/02 03:30:56;;;;;;;27.15;14.68;;;1.50;99.90;;;;;;5149680;27;20023;-58
2022/03/02 03:33:22;;;;;;;27.45;15.35;;;1.40;99.90;;;;;;5151352;27;20113;-59
2022/03/02 03:35:47;;;;;;;26.75;14.70;;;1.40;99.90;;;;;;5151143;27;20107;-59
2022/03/02 03:38:13;;;;;;;27.67;14.57;;;1.40;99.90;;;;;;5143759;27;20027;-60
2022/03/02 03:40:38;;;;;;;27.15;15.05;;;1.40;99.90;;;;;;5145453;27;20029;-59
2022/03/02 03:43:04;;;;;;;27.15;15.38;;;1.40;99.90;;;;;;5149591;27;20079;-58
2022/03/02 03:45:30;;;;;;;28.90;15.75;;;1.30;99.90;;;;;;5150400;27;20100;-56
2022/03/02 03:47:56;;;;;;;29.38;16.73;;;1.30;99.90;;;;;;5137908;27;20055;-56
2022/03/02 03:50:22;;;;;;;30.95;18.13;;;1.40;99.90;;;;;;5142358;27;20031;-56
2022/03/02 03:52:47;;;;;;;36.22;18.27;;;1.40;99.90;;;;;;5150572;27;20054;-56
2022/03/02 03:55:14;;;;;;;31.20;17.05;;;1.30;99.90;;;;;;5151042;27;20229;-56
2022/03/02 03:57:40;;;;;;;31.25;17.50;;;1.40;99.90;;;;;;5142316;27;20161;-56
2022/03/02 04:00:17;;;;;;;37.45;19.73;;;1.40;99.90;;;;;;5141502;27;20164;-56
2022/03/02 04:02:43;;;;;;;31.42;16.48;;;1.40;99.90;;;;;;5150728;27;20030;-56
2022/03/02 04:05:10;;;;;;;30.80;17.98;;;1.40;99.90;;;;;;5144035;27;20024;-56
2022/03/02 04:07:36;;;;;;;33.72;18.88;;;1.40;99.90;;;;;;5133398;27;20031;-57
2022/03/02 04:10:04;;;;;;;30.58;18.92;;;1.40;99.90;;;;;;5148796;27;20038;-57
2022/03/02 04:12:30;;;;;;;33.50;18.80;;;1.40;99.90;;;;;;5133676;27;20023;-57
2022/03/02 04:14:56;;;;;;;31.95;18.52;;;1.40;99.90;;;;;;5141803;27;20027;-57
2022/03/02 04:17:22;;;;;;;31.98;17.05;;;1.40;99.90;;;;;;5150591;27;20026;-56
2022/03/02 04:19:48;;;;;;;34.00;18.02;;;1.40;99.90;;;;;;5148512;27;20019;-56
2022/03/02 04:22:14;;;;;;;34.85;19.42;;;1.40;99.90;;;;;;5150239;27;20023;-56
2022/03/02 04:24:40;;;;;;;32.95;17.25;;;1.40;99.90;;;;;;5150586;27;20033;-57
2022/03/02 04:27:07;;;;;;;33.92;17.70;;;1.40;99.90;;;;;;5149749;27;20030;-56
2022/03/02 04:29:33;;;;;;;33.63;17.60;;;1.30;99.90;;;;;;5149583;27;20562;-56
2022/03/02 04:31:58;;;;;;;34.58;18.73;;;1.30;99.90;;;;;;5150185;27;20109;-56
2022/03/02 04:34:24;;;;;;;34.15;18.08;;;1.30;99.90;;;;;;5146567;27;20368;-56
2022/03/02 04:36:49;;;;;;;30.77;18.20;;;1.30;99.90;;;;;;5141120;27;20056;-57
2022/03/02 04:39:15;;;;;;;29.75;18.13;;;1.30;99.90;;;;;;5149259;27;20023;-57
2022/03/02 04:41:41;;;;;;;31.30;17.83;;;1.30;99.90;;;;;;5148291;27;20081;-56
2022/03/02 04:44:06;;;;;;;31.38;18.17;;;1.30;99.90;;;;;;5150402;27;20022;-55
2022/03/02 04:46:32;;;;;;;30.40;18.38;;;1.40;99.90;;;;;;5148575;27;20025;-56
2022/03/02 04:48:57;;;;;;;31.85;18.52;;;1.40;99.90;;;;;;5136330;27;20028;-55
2022/03/02 04:51:23;;;;;;;29.52;17.55;;;1.30;99.90;;;;;;5149572;27;20292;-54
2022/03/02 04:53:51;;;;;;;30.35;17.92;;;1.30;99.90;;;;;;5149631;27;20023;-55
2022/03/02 04:56:17;;;;;;;32.30;19.00;;;1.40;99.90;;;;;;5150113;27;20019;-58
2022/03/02 04:58:43;;;;;;;28.25;17.42;;;1.30;99.90;;;;;;5137238;27;20456;-58
2022/03/02 05:01:08;;;;;;;31.73;18.25;;;1.30;99.90;;;;;;5139308;27;20110;-58
2022/03/02 05:03:34;;;;;;;39.35;17.98;;;1.30;99.90;;;;;;5128974;27;20022;-58
2022/03/02 05:05:59;;;;;;;38.58;19.17;;;1.30;99.90;;;;;;5141048;27;20038;-59
2022/03/02 05:08:25;;;;;;;36.67;19.27;;;1.30;99.90;;;;;;5138760;27;20147;-57
2022/03/02 05:10:50;;;;;;;31.90;18.30;;;1.30;99.90;;;;;;5135890;27;20031;-58
2022/03/02 05:13:16;;;;;;;36.42;19.05;;;1.30;99.90;;;;;;5128467;27;20019;-58
2022/03/02 05:15:41;;;;;;;33.78;18.92;;;1.30;99.90;;;;;;5127055;27;20031;-58
2022/03/02 05:18:07;;;;;;;31.27;18.27;;;1.30;99.90;;;;;;5135801;27;20035;-57
2022/03/02 05:20:34;;;;;;;32.92;18.85;;;1.30;99.90;;;;;;5142895;27;20111;-56
2022/03/02 05:22:59;;;;;;;35.28;19.65;;;1.30;99.90;;;;;;5145273;27;20057;-57
2022/03/02 05:25:25;;;;;;;33.53;19.35;;;1.30;99.90;;;;;;5130557;27;20055;-56
2022/03/02 05:27:51;;;;;;;33.90;18.67;;;1.30;99.90;;;;;;5146013;27;20018;-56
2022/03/02 05:30:17;;;;;;;28.25;16.85;;;1.20;99.90;;;;;;5148476;27;20391;-57
2022/03/02 05:32:43;;;;;;;33.22;19.17;;;1.20;99.90;;;;;;5148815;27;20114;-57
2022/03/02 05:35:09;;;;;;;40.47;18.38;;;1.20;99.90;;;;;;5147057;27;20109;-57
2022/03/02 05:37:35;;;;;;;32.20;17.85;;;1.20;99.90;;;;;;5149345;27;20030;-57
2022/03/02 05:40:03;;;;;;;31.75;17.92;;;1.20;99.90;;;;;;5148301;27;20023;-57
2022/03/02 05:42:28;;;;;;;32.42;18.90;;;1.20;99.90;;;;;;5148352;27;20535;-57
2022/03/02 05:44:54;;;;;;;32.13;18.33;;;1.20;99.90;;;;;;5148166;27;20113;-57
2022/03/02 05:47:19;;;;;;;34.70;19.67;;;1.20;99.90;;;;;;5148651;27;20026;-57
2022/03/02 05:49:45;;;;;;;41.80;19.85;;;1.20;99.90;;;;;;5126852;27;20108;-57
2022/03/02 05:52:10;;;;;;;34.03;17.95;;;1.20;99.90;;;;;;5131482;27;20034;-57
2022/03/02 05:54:36;;;;;;;38.38;18.48;;;1.20;99.90;;;;;;5123103;27;20111;-57
2022/03/02 05:57:01;;;;;;;31.77;18.27;;;1.20;99.90;;;;;;5118724;27;20039;-57
2022/03/02 05:59:27;;;;;;;33.20;18.60;;;1.30;99.90;;;;;;5122118;27;20437;-57
2022/03/02 06:01:52;;;;;;;33.33;18.23;;;1.30;99.90;;;;;;5124969;27;20092;-57
2022/03/02 06:04:18;;;;;;;34.78;19.98;;;1.30;99.90;;;;;;5122614;27;20022;-56
2022/03/02 06:06:44;;;;;;;33.03;18.98;;;1.30;99.90;;;;;;5129315;27;20023;-57
2022/03/02 06:09:10;;;;;;;29.75;18.38;;;1.30;99.90;;;;;;5126652;27;20034;-57
2022/03/02 06:11:37;;;;;;;34.90;18.80;;;1.30;99.90;;;;;;5138283;27;20038;-56
2022/03/02 06:14:05;;;;;;;36.55;19.85;;;1.30;99.90;;;;;;5143543;27;20048;-56
2022/03/02 06:16:30;;;;;;;32.85;18.90;;;1.30;99.90;;;;;;5142170;27;20103;-56
2022/03/02 06:18:56;;;;;;;34.55;19.17;;;1.30;99.90;;;;;;5139202;27;20090;-56
2022/03/02 06:21:27;;;;;;;30.38;19.88;;;1.30;99.90;;;;;;5130168;27;20290;-56
2022/03/02 06:23:53;;;;;;;31.92;17.40;;;1.30;99.90;;;;;;5137814;27;20022;-56
2022/03/02 06:26:19;;;;;;;35.95;16.90;;;1.30;99.90;;;;;;5127190;27;20085;-56
2022/03/02 06:28:47;;;;;;;30.55;17.40;;;1.40;99.90;;;;;;5139799;27;20019;-56
2022/03/02 06:31:15;;;;;;;33.00;18.63;;;1.40;99.90;;;;;;5118774;27;20073;-56
2022/03/02 06:33:41;;;;;;;37.08;18.90;;;1.40;99.90;;;;;;5110465;28;20072;-56
2022/03/02 06:36:07;;;;;;;34.03;19.30;;;1.40;99.90;;;;;;5110168;28;20032;-56
2022/03/02 06:38:32;;;;;;;31.45;18.95;;;1.40;99.90;;;;;;5121586;27;20020;-56
2022/03/02 06:41:28;;;;;;;30.80;18.15;;;1.50;99.90;;;;;;5118805;27;20510;-56
2022/03/02 06:44:00;;;;;;;31.60;17.73;;;1.50;99.90;;;;;;5111056;27;20095;-56
2022/03/02 06:46:50;;;;;;;33.55;19.83;;;1.50;99.90;;;;;;5110231;28;20024;-56
2022/03/02 06:49:25;;;;;;;31.67;18.08;;;1.50;99.90;;;;;;5146488;27;20139;-56
2022/03/02 06:51:57;;;;;;;36.72;18.15;;;1.50;99.90;;;;;;5134594;27;20112;-57
2022/03/02 06:54:26;;;;;;;29.98;17.42;;;1.50;99.90;;;;;;5130131;27;20171;-56
2022/03/02 06:56:55;;;;;;;32.13;17.88;;;1.50;99.90;;;;;;5127862;27;20038;-56
2022/03/02 06:59:38;;;;;;;30.35;18.55;;;1.60;99.90;;;;;;5110057;27;20027;-56
2022/03/02 07:02:05;;;;;;;48.03;26.33;;;1.60;99.90;;;;;;5127589;27;20020;-56
2022/03/02 07:04:36;;;;;;;38.10;20.35;;;1.60;99.90;;;;;;5141971;27;20041;-56
2022/03/02 07:07:03;;;;;;;37.88;20.30;;;1.60;99.90;;;;;;5140738;27;20032;-56
2022/03/02 07:09:30;;;;;;;32.90;20.45;;;1.70;99.90;;;;;;5125914;27;20063;-56
2022/03/02 07:11:58;;;;;;;31.67;18.55;;;1.70;99.90;;;;;;5132265;27;20034;-56
2022/03/02 07:14:23;;;;;;;37.35;19.55;;;1.70;99.90;;;;;;5144009;27;20491;-56
2022/03/02 07:16:50;;;;;;;32.83;19.02;;;1.70;99.90;;;;;;5146152;27;20031;-57
2022/03/02 07:19:15;;;;;;;30.92;17.98;;;1.70;99.90;;;;;;5133034;27;20055;-57
2022/03/02 07:21:45;;;;;;;31.65;19.23;;;1.70;99.90;;;;;;5136966;27;20120;-58
2022/03/02 07:24:17;;;;;;;32.85;18.50;;;1.80;99.90;;;;;;5130765;27;20049;-58
2022/03/02 07:26:45;;;;;;;34.45;19.10;;;1.90;99.90;;;;;;5116834;27;20102;-58
2022/03/02 07:29:13;;;;;;;36.45;18.42;;;1.80;99.90;;;;;;5141759;27;20480;-57
2022/03/02 07:31:41;;;;;;;32.65;19.90;;;1.80;99.90;;;;;;5130838;27;20031;-57
2022/03/02 07:34:09;;;;;;;33.30;18.35;;;1.90;99.90;;;;;;5130240;27;20039;-57
2022/03/02 07:36:35;;;;;;;32.38;18.00;;;1.90;99.90;;;;;;5125096;27;20022;-58
2022/03/02 07:39:01;;;;;;;34.88;18.27;;;2.00;99.90;;;;;;5134694;27;20023;-57
2022/03/02 07:41:27;;;;;;;31.77;19.25;;;2.00;99.90;;;;;;5135240;27;20106;-58
2022/03/02 07:43:53;;;;;;;36.25;19.42;;;2.00;99.90;;;;;;5130212;27;20023;-58
2022/03/02 07:46:18;;;;;;;40.40;18.98;;;2.10;99.90;;;;;;5118745;27;20027;-58
2022/03/02 07:48:44;;;;;;;35.05;19.83;;;2.10;99.90;;;;;;5109513;28;20081;-58
2022/03/02 07:51:09;;;;;;;33.35;19.05;;;2.10;99.90;;;;;;5107639;28;20027;-58
2022/03/02 07:53:49;;;;;;;35.33;17.92;;;2.20;99.90;;;;;;5109661;28;20055;-57
2022/03/02 07:56:15;;;;;;;30.60;17.60;;;2.30;99.90;;;;;;5109765;28;20024;-58
2022/03/02 07:58:41;;;;;;;33.85;18.25;;;2.40;99.90;;;;;;5126956;27;20031;-58
2022/03/02 08:01:10;;;;;;;28.75;17.25;;;2.30;99.90;;;;;;5121026;27;20035;-57
2022/03/02 08:03:39;;;;;;;31.25;18.08;;;2.50;99.90;;;;;;5141307;27;20419;-57
2022/03/02 08:06:05;;;;;;;30.85;18.55;;;2.50;99.90;;;;;;5136447;27;20461;-57
2022/03/02 08:08:31;;;;;;;36.97;18.85;;;2.50;99.90;;;;;;5138429;27;20042;-58
2022/03/02 08:10:56;;;;;;;29.38;17.17;;;2.60;99.90;;;;;;5136771;27;20105;-57
2022/03/02 08:13:23;;;;;;;37.92;17.85;;;2.60;99.90;;;;;;5140794;27;20390;-58
2022/03/02 08:15:50;;;;;;;33.63;18.73;;;2.80;99.90;;;;;;5150230;27;20022;-57
2022/03/02 08:18:17;;;;;;;31.65;18.48;;;2.90;99.90;;;;;;5128767;27;20074;-58
2022/03/02 08:20:49;;;;;;;33.53;18.67;;;3.00;99.90;;;;;;5134549;27;20043;-58
2022/03/02 08:23:15;;;;;;;29.17;17.52;;;3.10;99.90;;;;;;5129074;27;20488;-58
2022/03/02 08:25:41;;;;;;;34.30;18.27;;;3.20;99.90;;;;;;5119319;27;20475;-58
2022/03/02 08:28:09;;;;;;;29.80;18.52;;;3.30;99.90;;;;;;5137581;27;20031;-58
2022/03/02 08:30:37;;;;;;;29.75;17.48;;;3.40;99.90;;;;;;5112750;27;20059;-58
2022/03/02 08:33:03;;;;;;;29.95;17.15;;;3.50;99.90;;;;;;5108549;27;20423;-58
2022/03/02 08:35:35;;;;;;;28.60;17.88;;;3.60;99.90;;;;;;5131628;27;20035;-58
2022/03/02 08:38:01;;;;;;;31.20;18.90;;;3.60;99.90;;;;;;5146712;27;20136;-58
2022/03/02 08:40:26;;;;;;;30.58;17.80;;;3.70;99.90;;;;;;5149064;27;20057;-58
2022/03/02 08:42:52;;;;;;;27.65;17.35;;;3.90;99.90;;;;;;5149793;27;20321;-58
2022/03/02 08:45:19;;;;;;;33.97;17.67;;;3.80;99.90;;;;;;5148169;27;20026;-58
2022/03/02 08:47:45;;;;;;;22.85;16.38;;;4.00;99.90;;;;;;5123203;27;20116;-58
2022/03/02 08:50:12;;;;;;;32.33;17.45;;;4.20;99.90;;;;;;5136916;27;20076;-59
2022/03/02 08:52:38;;;;;;;30.85;17.45;;;4.20;99.90;;;;;;5149893;27;20086;-58
2022/03/02 08:55:09;;;;;;;31.92;17.98;;;4.30;99.90;;;;;;5139684;27;20024;-58
2022/03/02 08:57:40;;;;;;;29.85;17.13;;;4.40;99.90;;;;;;5128475;27;20015;-58
2022/03/02 09:00:07;;;;;;;29.13;17.10;;;4.50;99.90;;;;;;5138568;27;20072;-59
2022/03/02 09:02:36;;;;;;;28.88;17.83;;;4.70;99.90;;;;;;5146676;27;20529;-58
2022/03/02 09:05:03;;;;;;;30.10;18.58;;;4.70;99.90;;;;;;5149660;27;20030;-58
2022/03/02 09:07:29;;;;;;;23.73;16.25;;;5.00;99.90;;;;;;5131732;27;20520;-58
2022/03/02 09:09:55;;;;;;;27.42;17.02;;;5.10;99.90;;;;;;5125493;27;20045;-58
2022/03/02 09:12:20;;;;;;;29.48;17.52;;;5.40;99.90;;;;;;5136330;27;20458;-58
2022/03/02 09:14:47;;;;;;;27.65;17.23;;;5.70;99.90;;;;;;5145748;27;20389;-58
2022/03/02 09:17:21;;;;;;;34.35;19.45;;;5.80;98.60;;;;;;5145023;27;20019;-58
2022/03/02 09:19:47;;;;;;;30.13;18.08;;;6.10;98.70;;;;;;5136152;27;20019;-58
2022/03/02 09:22:13;;;;;;;26.90;16.98;;;6.20;98.20;;;;;;5115495;27;20080;-58
2022/03/02 09:24:39;;;;;;;28.23;17.73;;;6.30;97.60;;;;;;5122658;27;20015;-58
2022/03/02 09:27:08;;;;;;;30.08;18.90;;;6.40;97.00;;;;;;5129393;27;20031;-58
2022/03/02 09:29:33;;;;;;;33.92;17.85;;;6.60;96.60;;;;;;5132548;27;20450;-58
2022/03/02 09:32:02;;;;;;;29.60;18.20;;;6.80;96.90;;;;;;5113073;27;20328;-59
2022/03/02 09:34:30;;;;;;;30.13;16.80;;;7.00;96.30;;;;;;5107383;28;20036;-59
2022/03/02 09:36:57;;;;;;;28.90;19.17;;;7.40;96.50;;;;;;5107847;28;20429;-59
2022/03/02 09:39:25;;;;;;;25.33;17.58;;;7.80;94.70;;;;;;5107234;28;20064;-59
2022/03/02 09:42:01;;;;;;;32.83;17.17;;;7.90;94.00;;;;;;5121031;27;20504;-59
2022/03/02 09:44:48;;;;;;;25.45;18.70;;;8.20;92.80;;;;;;5117821;27;20252;-59
2022/03/02 09:47:18;;;;;;;24.23;16.77;;;8.60;92.30;;;;;;5129340;27;20022;-59
2022/03/02 09:49:49;;;;;;;28.48;18.25;;;9.20;91.30;;;;;;5130846;27;20036;-59
2022/03/02 09:52:20;;;;;;;22.75;16.60;;;10.10;86.50;;;;;;5127306;27;20510;-59
2022/03/02 09:54:51;;;;;;;21.63;15.77;;;10.70;83.80;;;;;;5107458;28;20035;-59
2022/03/02 09:57:18;;;;;;;23.42;17.52;;;11.10;80.20;;;;;;5115708;27;20295;-59
2022/03/02 09:59:52;;;;;;;22.48;16.98;;;11.10;77.00;;;;;;5139181;27;20022;-59
2022/03/02 10:02:32;;;;;;;23.45;17.20;;;11.90;76.40;;;;;;5140197;27;20450;-59
2022/03/02 10:05:02;;;;;;;;;;;12.20;72.70;;;;;;5150601;27;20094;-59
2022/03/02 10:07:30;;;;;;;26.58;17.75;;;12.40;70.10;;;;;;5127888;27;20041;-59
2022/03/02 10:10:17;;;;;;;22.95;16.63;;;13.10;68.10;;;;;;5127274;27;20034;-59
2022/03/02 10:12:43;;;;;;;25.25;17.23;;;14.00;66.90;;;;;;5129863;27;20341;-59
2022/03/02 10:15:12;;;;;;;21.98;16.25;;;14.90;62.20;;;;;;5112098;27;20122;-57
2022/03/02 10:17:40;;;;;;;20.40;15.88;;;16.00;61.10;;;;;;5127817;27;20019;-57
2022/03/02 10:20:13;;;;;;;23.20;16.88;;;17.10;56.60;;;;;;5126672;27;20016;-57
2022/03/02 10:22:47;;;;;;;23.02;15.55;;;16.90;53.60;;;;;;5107639;28;20058;-57
2022/03/02 10:25:15;;;;;;;24.38;17.17;;;16.50;52.60;;;;;;5107071;28;20030;-57
2022/03/02 10:28:02;;;;;;;25.75;16.83;;;16.20;53.50;;;;;;5131441;27;20023;-57
2022/03/02 10:30:37;;;;;;;28.98;18.08;;;16.20;52.60;;;;;;5108455;28;20553;-57
2022/03/02 10:33:23;;;;;;;23.65;16.45;;;15.90;53.20;;;;;;5137291;27;20065;-57
2022/03/02 10:36:04;;;;;;;24.55;16.65;;;16.40;53.70;;;;;;5144035;27;20109;-57
2022/03/02 10:39:01;;;;;;;26.15;17.08;;;16.10;51.60;;;;;;5121960;27;20023;-58
2022/03/02 10:41:29;;;;;;;25.48;17.70;;;16.20;52.40;;;;;;5117215;27;20059;-59
2022/03/02 10:44:04;;;;;;;21.13;15.95;;;16.70;52.30;;;;;;5130771;27;20068;-58
2022/03/02 10:46:30;;;;;;;25.27;18.35;;;17.50;50.10;;;;;;5148166;27;20023;-58
2022/03/02 10:49:01;;;;;;;30.73;18.60;;;18.80;48.80;;;;;;5127270;27;20030;-58
2022/03/02 10:51:30;;;;;;;19.58;15.85;;;18.70;48.70;;;;;;5124523;27;20034;-58
2022/03/02 10:53:59;;;;;;;22.27;16.13;;;19.20;48.10;;;;;;5129179;27;20030;-58
2022/03/02 10:56:27;;;;;;;20.60;16.35;;;20.00;46.80;;;;;;5130329;27;20020;-58
2022/03/02 10:58:54;;;;;;;19.80;15.18;;;20.80;43.80;;;;;;5127844;27;20030;-58
2022/03/02 11:01:20;;;;;;;20.38;16.95;;;20.80;44.20;;;;;;5136844;27;20368;-58
2022/03/02 11:03:46;;;;;;;23.75;18.17;;;20.60;43.10;;;;;;5130314;27;20098;-58
2022/03/02 11:06:11;;;;;;;19.63;15.00;;;20.70;42.60;;;;;;5118574;27;20114;-59
2022/03/02 11:08:38;;;;;;;19.75;15.15;;;21.50;41.50;;;;;;5119836;27;20024;-59
2022/03/02 11:11:06;;;;;;;19.98;15.52;;;21.80;40.80;;;;;;5124728;27;20031;-59
2022/03/02 11:13:32;;;;;;;21.73;15.18;;;21.60;40.40;;;;;;5117325;27;20042;-59
2022/03/02 11:16:00;;;;;;;18.33;14.80;;;22.30;39.60;;;;;;5119015;27;20525;-59
2022/03/02 11:18:48;;;;;;;19.42;15.73;;;22.70;40.20;;;;;;5126705;27;20023;-59
2022/03/02 11:21:17;;;;;;;18.13;14.98;;;22.00;40.10;;;;;;5117163;27;20027;-59
2022/03/02 11:23:45;;;;;;;18.60;15.98;;;21.60;40.50;;;;;;5109405;27;20015;-59
2022/03/02 11:26:24;;;;;;;19.35;16.00;;;22.00;40.70;;;;;;5129736;27;20033;-59
2022/03/02 11:28:51;;;;;;;22.02;16.58;;;22.20;39.80;;;;;;5125816;27;20421;-59
2022/03/02 11:31:31;;;;;;;23.23;16.50;;;21.70;39.40;;;;;;5121351;27;20522;-58
2022/03/02 11:34:09;;;;;;;18.58;16.02;;;22.00;38.90;;;;;;5130512;27;20031;-58
2022/03/02 11:36:37;;;;;;;19.58;15.10;;;21.50;39.00;;;;;;5116949;27;20228;-59
2022/03/02 11:39:04;;;;;;;20.25;15.18;;;21.40;40.50;;;;;;5120855;27;20015;-58
2022/03/02 11:41:34;;;;;;;19.80;14.52;;;21.90;39.10;;;;;;5113799;27;20710;-58
2022/03/02 11:44:05;;;;;;;19.60;13.32;;;22.70;37.80;;;;;;5143909;27;20026;-58
2022/03/02 11:46:31;;;;;;;16.50;13.98;;;22.70;37.20;;;;;;5115251;27;20027;-58
2022/03/02 11:48:57;;;;;;;19.55;14.52;;;22.80;36.80;;;;;;5112052;27;20015;-58
2022/03/02 11:51:25;;;;;;;18.58;14.00;;;22.80;37.20;;;;;;5137922;27;20012;-58
2022/03/02 11:53:52;;;;;;;20.13;14.30;;;22.60;38.60;;;;;;5136327;27;20019;-58
2022/03/02 11:56:20;;;;;;;18.15;14.13;;;22.70;36.40;;;;;;5150854;27;20268;-58
2022/03/02 11:58:59;;;;;;;18.63;13.80;;;23.30;36.50;;;;;;5135378;27;20118;-58
2022/03/02 12:01:27;;;;;;;17.70;14.68;;;22.60;36.80;;;;;;5115604;27;20027;-58
2022/03/02 12:04:00;;;;;;;16.95;13.68;;;21.60;38.20;;;;;;5121487;27;20007;-58
2022/03/02 12:06:28;;;;;;;18.13;14.40;;;22.70;35.00;;;;;;5132038;27;20023;-58
2022/03/02 12:08:56;;;;;;;19.48;13.30;;;23.50;35.20;;;;;;5128447;27;20091;-58
2022/03/02 12:11:34;;;;;;;17.80;15.18;;;23.00;35.80;;;;;;5117194;27;20384;-58
2022/03/02 12:14:09;;;;;;;17.30;15.48;;;22.30;36.40;;;;;;5126351;27;20475;-58
2022/03/02 12:16:46;;;;;;;21.00;14.75;;;22.80;34.70;;;;;;5113899;27;20322;-58
2022/03/02 12:19:26;;;;;;;19.15;14.57;;;21.90;36.20;;;;;;5122855;27;20015;-58
2022/03/02 12:22:01;;;;;;;18.88;13.88;;;21.60;36.40;;;;;;5141403;27;20045;-58
2022/03/02 12:24:32;;;;;;;17.80;14.88;;;21.20;38.00;;;;;;5150033;27;20065;-58
2022/03/02 12:27:09;;;;;;;17.83;14.20;;;20.90;37.90;;;;;;5136062;27;20472;-58
2022/03/02 12:29:38;;;;;;;19.90;14.35;;;21.40;36.20;;;;;;5119864;27;20050;-58
2022/03/02 12:32:17;;;;;;;19.42;14.50;;;20.80;36.30;;;;;;5138505;27;20031;-58
2022/03/02 12:34:50;;;;;;;17.98;13.93;;;20.60;36.60;;;;;;5149579;27;20019;-58
2022/03/02 12:37:17;;;;;;;18.67;15.20;;;20.70;35.60;;;;;;5129774;27;20114;-58
2022/03/02 12:39:44;;;;;;;27.42;17.27;;;20.00;36.90;;;;;;5127684;27;20011;-58